createdAt,value
2018-03-03T00:02:20.858Z,71.73
2018-03-03T00:04:48.309Z,62.30
2018-03-03T00:07:16.750Z,49.37
2018-03-03T00:09:45.845Z,63.77
2018-03-03T00:12:13.382Z,46.77
2018-03-03T00:14:40.869Z,64.10
2018-03-03T00:17:08.391Z,50.80
2018-03-03T00:19:35.857Z,69.20
2018-03-03T00:22:03.355Z,48.30
2018-03-03T00:24:30.842Z,57.33
2018-03-03T00:26:59.011Z,47.30
2018-03-03T00:29:27.287Z,66.33
2018-03-03T00:31:54.736Z,50.03
2018-03-03T00:34:22.178Z,66.00
2018-03-03T00:36:49.686Z,48.53
2018-03-03T00:39:17.326Z,62.07
2018-03-03T00:41:44.770Z,58.40
2018-03-03T00:44:12.253Z,63.27
2018-03-03T00:46:39.731Z,63.73
2018-03-03T00:49:07.183Z,62.30
2018-03-03T00:51:34.626Z,59.60
2018-03-03T00:54:02.122Z,59.90
2018-03-03T00:56:29.578Z,60.23
2018-03-03T00:58:57.059Z,68.80
2018-03-03T01:01:24.516Z,64.07
2018-03-03T01:03:52.015Z,69.10
2018-03-03T01:06:19.472Z,63.60
2018-03-03T01:08:46.904Z,60.77
2018-03-03T01:11:14.382Z,63.43
2018-03-03T01:13:41.823Z,59.30
2018-03-03T01:16:14.292Z,66.70
2018-03-03T01:18:41.744Z,65.57
2018-03-03T01:21:09.228Z,61.90
2018-03-03T01:23:36.688Z,64.53
2018-03-03T01:26:04.153Z,59.20
2018-03-03T01:28:31.591Z,49.53
2018-03-03T01:30:59.098Z,68.00
2018-03-03T01:33:26.529Z,48.63
2018-03-03T01:35:54.005Z,66.90
2018-03-03T01:38:21.482Z,61.77
2018-03-03T01:40:48.923Z,60.70
2018-03-03T01:43:16.399Z,69.33
2018-03-03T01:45:43.832Z,58.33
2018-03-03T01:48:11.296Z,67.97
2018-03-03T01:50:38.760Z,65.80
2018-03-03T01:53:06.198Z,63.03
2018-03-03T01:55:33.661Z,71.50
2018-03-03T01:58:01.154Z,60.43
2018-03-03T02:00:28.654Z,64.37
2018-03-03T02:02:56.132Z,56.47
2018-03-03T02:05:23.592Z,68.07
2018-03-03T02:07:51.050Z,70.53
2018-03-03T02:10:18.548Z,64.87
2018-03-03T02:12:46.107Z,65.03
2018-03-03T02:15:13.539Z,65.73
2018-03-03T02:17:41.012Z,72.70
2018-03-03T02:20:08.460Z,67.40
2018-03-03T02:22:35.910Z,68.20
2018-03-03T02:25:03.457Z,65.10
2018-03-03T02:27:30.902Z,63.10
2018-03-03T02:29:58.390Z,71.83
2018-03-03T02:32:25.841Z,71.63
2018-03-03T02:34:53.305Z,69.00
2018-03-03T02:37:20.772Z,71.37
2018-03-03T02:39:48.238Z,72.83
2018-03-03T02:42:15.668Z,70.87
2018-03-03T02:44:43.111Z,69.37
2018-03-03T02:47:10.562Z,74.40
2018-03-03T02:49:37.994Z,71.37
2018-03-03T02:52:05.452Z,67.37
2018-03-03T02:54:32.894Z,71.87
2018-03-03T02:57:00.373Z,73.03
2018-03-03T02:59:27.809Z,61.30
2018-03-03T03:01:55.235Z,64.23
2018-03-03T03:04:22.668Z,73.10
2018-03-03T03:06:50.110Z,69.83
2018-03-03T03:09:17.596Z,79.57
2018-03-03T03:11:45.037Z,68.30
2018-03-03T03:14:12.577Z,61.73
2018-03-03T03:16:40.134Z,68.90
2018-03-03T03:19:07.534Z,72.27
2018-03-03T03:21:34.982Z,66.63
2018-03-03T03:24:02.436Z,71.00
2018-03-03T03:26:29.860Z,60.27
2018-03-03T03:28:57.291Z,77.43
2018-03-03T03:31:24.997Z,64.57
2018-03-03T03:33:52.460Z,69.43
2018-03-03T03:36:21.978Z,69.83
2018-03-03T03:38:49.898Z,70.90
2018-03-03T03:41:18.162Z,69.67
2018-03-03T03:43:45.650Z,77.83
2018-03-03T03:46:13.106Z,70.20
2018-03-03T03:48:40.542Z,71.47
2018-03-03T03:51:07.996Z,73.23
2018-03-03T03:53:35.446Z,68.93
2018-03-03T03:56:02.916Z,78.90
2018-03-03T03:58:30.407Z,74.63
2018-03-03T04:00:57.831Z,68.07
2018-03-03T04:03:25.290Z,72.70
2018-03-03T04:05:52.760Z,67.00
2018-03-03T04:08:20.231Z,75.20
2018-03-03T04:10:47.676Z,70.53
2018-03-03T04:13:15.132Z,75.20
2018-03-03T04:15:42.576Z,75.17
2018-03-03T04:18:10.068Z,72.83
2018-03-03T04:20:37.520Z,70.93
2018-03-03T04:23:05.000Z,76.37
2018-03-03T04:25:32.474Z,77.10
2018-03-03T04:27:59.914Z,65.53
2018-03-03T04:30:28.570Z,71.20
2018-03-03T04:32:56.063Z,76.10
2018-03-03T04:35:23.536Z,65.43
2018-03-03T04:37:51.012Z,68.93
2018-03-03T04:40:19.358Z,74.47
2018-03-03T04:42:46.832Z,72.60
2018-03-03T04:45:15.044Z,70.80
2018-03-03T04:47:42.512Z,70.10
2018-03-03T04:50:09.970Z,77.80
2018-03-03T04:52:37.427Z,70.33
2018-03-03T04:55:05.099Z,74.70
2018-03-03T04:57:32.906Z,73.90
2018-03-03T05:00:07.119Z,71.57
2018-03-03T05:02:40.178Z,75.63
2018-03-03T05:08:22.569Z,70.10
2018-03-03T05:10:50.432Z,69.03
2018-03-03T05:13:33.698Z,76.80
2018-03-03T05:19:08.468Z,70.60
2018-03-03T05:21:37.476Z,73.90
2018-03-03T05:27:25.291Z,69.23
2018-03-03T05:29:58.403Z,76.30
2018-03-03T05:35:42.360Z,77.93
2018-03-03T05:38:11.190Z,76.40
2018-03-03T05:40:44.264Z,78.40
2018-03-03T05:43:17.265Z,78.03
2018-03-03T05:45:50.399Z,74.73
2018-03-03T05:48:22.411Z,76.97
2018-03-03T05:50:55.611Z,77.40
2018-03-03T05:53:33.017Z,69.10
2018-03-03T05:58:58.426Z,63.70
2018-03-03T06:01:43.672Z,74.23
2018-03-03T06:04:15.186Z,69.60
2018-03-03T06:07:00.433Z,75.93
2018-03-03T06:09:28.754Z,81.83
2018-03-03T06:11:56.247Z,75.20
2018-03-03T06:14:23.737Z,67.40
2018-03-03T06:16:51.241Z,71.93
2018-03-03T06:19:18.771Z,83.10
2018-03-03T06:21:46.279Z,73.67
2018-03-03T06:24:13.765Z,72.50
2018-03-03T06:26:41.286Z,78.60
2018-03-03T06:29:08.761Z,84.50
2018-03-03T06:31:36.259Z,77.97
2018-03-03T06:34:04.128Z,79.43
2018-03-03T06:36:31.649Z,74.10
2018-03-03T06:38:59.141Z,75.87
2018-03-03T06:41:26.626Z,68.87
2018-03-03T06:43:54.128Z,76.60
2018-03-03T06:46:27.409Z,74.90
2018-03-03T06:48:54.926Z,75.93
2018-03-03T06:51:22.454Z,80.93
2018-03-03T06:53:49.964Z,70.10
2018-03-03T06:56:17.484Z,72.30
2018-03-03T06:58:45.003Z,78.83
2018-03-03T07:01:12.522Z,75.80
2018-03-03T07:03:40.022Z,76.70
2018-03-03T07:06:07.507Z,71.23
2018-03-03T07:08:34.983Z,75.00
2018-03-03T07:11:02.473Z,78.70
2018-03-03T07:13:29.929Z,79.73
2018-03-03T07:15:57.465Z,76.67
2018-03-03T07:18:24.872Z,71.63
2018-03-03T07:20:52.375Z,78.00
2018-03-03T07:23:19.822Z,71.20
2018-03-03T07:25:47.271Z,76.50
2018-03-03T07:28:14.750Z,82.57
2018-03-03T07:30:42.178Z,82.27
2018-03-03T07:33:09.650Z,80.37
2018-03-03T07:35:37.088Z,75.93
2018-03-03T07:38:04.523Z,74.27
2018-03-03T07:40:34.063Z,81.20
2018-03-03T07:43:02.385Z,77.43
2018-03-03T07:45:31.572Z,77.97
2018-03-03T07:47:59.003Z,76.93
2018-03-03T07:50:26.451Z,82.60
2018-03-03T07:52:53.911Z,78.63
2018-03-03T07:55:21.357Z,78.03
2018-03-03T07:57:49.115Z,75.20
2018-03-03T08:00:17.203Z,85.27
2018-03-03T08:02:44.747Z,81.10
2018-03-03T08:05:12.260Z,73.40
2018-03-03T08:07:39.742Z,82.90
2018-03-03T08:10:07.263Z,82.17
2018-03-03T08:12:34.767Z,79.13
2018-03-03T08:15:02.267Z,78.67
2018-03-03T08:17:29.755Z,81.30
2018-03-03T08:19:57.199Z,78.87
2018-03-03T08:22:24.641Z,85.33
2018-03-03T08:24:52.111Z,84.57
2018-03-03T08:27:19.567Z,82.97
2018-03-03T08:29:47.043Z,80.00
2018-03-03T08:32:14.509Z,79.63
2018-03-03T08:34:41.977Z,80.90
2018-03-03T08:37:09.465Z,80.97
2018-03-03T08:39:36.976Z,80.53
2018-03-03T08:42:04.469Z,90.50
2018-03-03T08:44:31.931Z,78.87
2018-03-03T08:46:59.395Z,92.33
2018-03-03T08:49:26.853Z,78.73
2018-03-03T08:51:54.330Z,81.17
2018-03-03T08:54:21.802Z,80.07
2018-03-03T08:56:54.153Z,92.93
2018-03-03T08:59:21.609Z,78.50
2018-03-03T09:01:49.084Z,83.03
2018-03-03T09:04:16.593Z,86.23
2018-03-03T09:06:44.067Z,78.43
2018-03-03T09:09:11.549Z,81.50
2018-03-03T09:11:39.013Z,63.50
2018-03-03T09:14:06.459Z,85.73
2018-03-03T09:16:33.957Z,62.53
2018-03-03T09:19:01.436Z,94.27
2018-03-03T09:21:28.942Z,65.00
2018-03-03T09:23:56.449Z,89.53
2018-03-03T09:26:23.937Z,64.80
2018-03-03T09:28:51.482Z,78.10
2018-03-03T09:31:18.927Z,65.70
2018-03-03T09:33:46.421Z,81.80
2018-03-03T09:36:13.916Z,56.60
2018-03-03T09:38:41.444Z,62.53
2018-03-03T09:41:08.915Z,56.20
2018-03-03T09:43:36.431Z,55.17
2018-03-03T09:46:03.882Z,57.13
2018-03-03T09:48:31.343Z,59.27
2018-03-03T09:50:58.843Z,58.50
2018-03-03T09:53:26.431Z,59.93
2018-03-03T09:55:53.930Z,58.90
2018-03-03T09:58:21.385Z,58.27
2018-03-03T10:00:48.843Z,59.43
2018-03-03T10:03:16.406Z,56.10
2018-03-03T10:05:43.843Z,53.77
2018-03-03T10:08:11.326Z,58.20
2018-03-03T10:10:38.807Z,58.90
2018-03-03T10:13:06.332Z,58.13
2018-03-03T10:15:33.780Z,59.23
2018-03-03T10:18:01.269Z,56.47
2018-03-03T10:20:28.787Z,49.20
2018-03-03T10:22:56.236Z,57.03
2018-03-03T10:25:23.700Z,48.73
2018-03-03T10:27:51.167Z,52.87
2018-03-03T10:30:18.637Z,51.77
2018-03-03T10:32:46.151Z,50.53
2018-03-03T10:35:13.617Z,51.87
2018-03-03T10:37:41.090Z,50.57
2018-03-03T10:40:08.613Z,56.07
2018-03-03T10:42:36.080Z,59.93
2018-03-03T10:45:03.591Z,55.87
2018-03-03T10:47:31.097Z,55.20
2018-03-03T10:49:58.551Z,55.33
2018-03-03T10:52:26.033Z,66.80
2018-03-03T10:54:53.467Z,56.97
2018-03-03T10:57:20.952Z,57.53
2018-03-03T10:59:48.404Z,53.53
2018-03-03T11:02:15.997Z,57.93
2018-03-03T11:04:43.470Z,57.63
2018-03-03T11:07:10.975Z,55.90
2018-03-03T11:09:38.485Z,57.83
2018-03-03T11:12:06.052Z,57.77
2018-03-03T11:14:33.521Z,60.93
2018-03-03T11:17:01.108Z,57.13
2018-03-03T11:19:28.539Z,52.27
2018-03-03T11:21:56.041Z,52.23
2018-03-03T11:24:23.499Z,54.60
2018-03-03T11:26:51.050Z,54.67
2018-03-03T11:29:18.519Z,56.83
2018-03-03T11:31:46.039Z,57.47
2018-03-03T11:34:13.488Z,55.27
2018-03-03T11:36:40.984Z,51.13
2018-03-03T11:39:08.432Z,57.27
2018-03-03T11:41:36.157Z,50.53
2018-03-03T11:44:03.634Z,58.90
2018-03-03T11:46:31.090Z,60.03
2018-03-03T11:48:58.572Z,58.17
2018-03-03T11:51:26.059Z,55.77
2018-03-03T11:53:53.543Z,55.97
2018-03-03T11:56:21.086Z,52.20
2018-03-03T11:58:48.552Z,51.03
2018-03-03T12:01:16.002Z,53.60
2018-03-03T12:03:43.447Z,48.60
2018-03-03T12:06:10.923Z,50.57
2018-03-03T12:08:38.368Z,51.57
2018-03-03T12:11:05.903Z,54.20
2018-03-03T12:13:33.381Z,54.27
2018-03-03T12:16:00.885Z,50.23
2018-03-03T12:18:28.339Z,49.57
2018-03-03T12:20:55.861Z,51.53
2018-03-03T12:23:23.324Z,48.77
2018-03-03T12:25:50.793Z,54.80
2018-03-03T12:28:18.257Z,49.70
2018-03-03T12:30:45.768Z,50.30
2018-03-03T12:33:13.221Z,46.60
2018-03-03T12:35:40.757Z,49.97
2018-03-03T12:38:08.225Z,49.80
2018-03-03T12:40:35.685Z,50.97
2018-03-03T12:43:03.184Z,48.30
2018-03-03T12:45:30.705Z,48.60
2018-03-03T12:47:58.203Z,50.60
2018-03-03T12:50:25.679Z,49.27
2018-03-03T12:52:53.196Z,46.50
2018-03-03T12:55:20.667Z,43.53
2018-03-03T12:57:48.134Z,46.83
2018-03-03T13:00:15.707Z,46.70
2018-03-03T13:02:43.154Z,46.40
2018-03-03T13:05:10.600Z,51.27
2018-03-03T13:07:38.167Z,44.87
2018-03-03T13:10:05.639Z,44.10
2018-03-03T13:12:33.136Z,45.97
2018-03-03T13:15:00.702Z,46.23
2018-03-03T13:17:28.241Z,41.50
2018-03-03T13:19:55.716Z,39.33
2018-03-03T13:22:23.153Z,39.77
2018-03-03T13:24:51.677Z,36.97
2018-03-03T13:27:19.251Z,42.80
2018-03-03T13:29:46.724Z,37.23
2018-03-03T13:32:14.218Z,39.43
2018-03-03T13:34:41.709Z,36.10
2018-03-03T13:37:09.175Z,36.03
2018-03-03T13:39:36.629Z,39.23
2018-03-03T13:42:04.157Z,38.57
2018-03-03T13:44:31.635Z,35.83
2018-03-03T13:46:59.090Z,34.73
2018-03-03T13:49:26.671Z,40.43
2018-03-03T13:51:54.160Z,39.73
2018-03-03T13:54:21.746Z,35.93
2018-03-03T13:56:49.228Z,37.90
2018-03-03T13:59:16.663Z,38.77
2018-03-03T14:01:44.150Z,39.10
2018-03-03T14:04:11.689Z,38.37
2018-03-03T14:06:39.156Z,35.53
2018-03-03T14:09:06.658Z,35.53
2018-03-03T14:11:34.137Z,32.03
2018-03-03T14:14:01.693Z,33.67
2018-03-03T14:16:29.162Z,42.97
2018-03-03T14:18:56.696Z,37.17
2018-03-03T14:21:24.338Z,31.73
2018-03-03T14:23:52.068Z,35.30
2018-03-03T14:26:19.588Z,35.07
2018-03-03T14:28:47.082Z,34.13
2018-03-03T14:31:14.580Z,40.33
2018-03-03T14:33:42.692Z,38.57
2018-03-03T14:36:10.198Z,38.67
2018-03-03T14:38:37.681Z,38.43
2018-03-03T14:41:05.120Z,36.23
2018-03-03T14:43:32.664Z,35.33
2018-03-03T14:46:00.105Z,38.10
2018-03-03T14:48:27.563Z,35.30
2018-03-03T14:50:55.056Z,33.33
2018-03-03T14:53:22.512Z,36.47
2018-03-03T14:55:50.067Z,36.60
2018-03-03T14:58:17.526Z,38.87
2018-03-03T15:00:45.052Z,36.73
2018-03-03T15:03:12.514Z,38.33
2018-03-03T15:05:40.032Z,37.40
2018-03-03T15:08:07.504Z,34.83
2018-03-03T15:10:35.054Z,39.20
2018-03-03T15:13:02.576Z,38.90
2018-03-03T15:15:30.102Z,38.50
2018-03-03T15:17:57.588Z,37.93
2018-03-03T15:20:25.064Z,37.93
2018-03-03T15:22:52.522Z,36.03
2018-03-03T15:25:20.039Z,38.67
2018-03-03T15:27:47.568Z,40.13
2018-03-03T15:30:14.967Z,36.20
2018-03-03T15:32:42.447Z,40.97
2018-03-03T15:35:09.990Z,39.50
2018-03-03T15:37:37.468Z,43.13
2018-03-03T15:40:04.961Z,40.00
2018-03-03T15:42:32.445Z,38.57
2018-03-03T15:44:59.889Z,39.13
2018-03-03T15:47:27.343Z,38.67
2018-03-03T15:49:54.832Z,38.73
2018-03-03T15:52:22.269Z,35.90
2018-03-03T15:54:49.743Z,43.67
2018-03-03T15:57:17.301Z,41.53
2018-03-03T15:59:44.759Z,41.60
2018-03-03T16:02:12.313Z,39.17
2018-03-03T16:04:39.780Z,37.33
2018-03-03T16:07:07.325Z,39.77
2018-03-03T16:09:34.795Z,41.00
2018-03-03T16:12:02.274Z,43.23
2018-03-03T16:14:29.783Z,40.10
2018-03-03T16:16:57.425Z,41.97
2018-03-03T16:19:25.021Z,41.97
2018-03-03T16:21:52.575Z,43.13
2018-03-03T16:24:20.096Z,48.00
2018-03-03T16:26:47.577Z,43.77
2018-03-03T16:29:15.073Z,40.37
2018-03-03T16:31:42.567Z,46.40
2018-03-03T16:34:10.017Z,42.67
2018-03-03T16:36:37.515Z,48.70
2018-03-03T16:39:04.978Z,42.63
2018-03-03T16:41:32.426Z,41.73
2018-03-03T16:43:59.863Z,42.93
2018-03-03T16:46:27.339Z,44.77
2018-03-03T16:48:54.963Z,42.30
2018-03-03T16:51:23.199Z,42.80
2018-03-03T16:53:50.659Z,46.10
2018-03-03T16:56:18.167Z,38.20
2018-03-03T16:58:45.644Z,42.90
2018-03-03T17:01:13.105Z,42.83
2018-03-03T17:03:40.574Z,36.33
2018-03-03T17:06:08.032Z,41.63
2018-03-03T17:08:35.578Z,40.93
2018-03-03T17:11:03.034Z,42.77
2018-03-03T17:13:30.496Z,43.30
2018-03-03T17:15:57.972Z,43.07
2018-03-03T17:18:25.428Z,43.63
2018-03-03T17:20:52.895Z,44.83
2018-03-03T17:23:20.334Z,47.43
2018-03-03T17:25:47.802Z,42.57
2018-03-03T17:28:15.247Z,40.93
2018-03-03T17:30:42.700Z,46.07
2018-03-03T17:33:10.183Z,43.67
2018-03-03T17:35:37.641Z,46.43
2018-03-03T17:38:05.115Z,43.07
2018-03-03T17:40:32.571Z,45.30
2018-03-03T17:43:00.053Z,46.07
2018-03-03T17:45:27.587Z,45.47
2018-03-03T17:47:55.080Z,43.03
2018-03-03T17:50:22.616Z,45.10
2018-03-03T17:52:50.047Z,44.23
2018-03-03T17:55:18.008Z,42.90
2018-03-03T17:57:45.505Z,41.67
2018-03-03T18:00:12.975Z,48.50
2018-03-03T18:02:40.448Z,43.07
2018-03-03T18:05:07.896Z,42.37
2018-03-03T18:07:35.393Z,43.97
2018-03-03T18:10:02.870Z,42.93
2018-03-03T18:12:30.348Z,44.67
2018-03-03T18:14:57.801Z,43.73
2018-03-03T18:17:25.273Z,43.53
2018-03-03T18:19:52.750Z,43.67
2018-03-03T18:22:20.245Z,47.87
2018-03-03T18:24:47.687Z,47.13
2018-03-03T18:27:15.193Z,48.73
2018-03-03T18:29:42.676Z,43.70
2018-03-03T18:32:10.131Z,44.80
2018-03-03T18:34:37.618Z,48.10
2018-03-03T18:37:05.087Z,48.83
2018-03-03T18:39:32.535Z,50.90
2018-03-03T18:42:00.010Z,51.10
2018-03-03T18:44:27.555Z,52.93
2018-03-03T18:46:55.008Z,46.63
2018-03-03T18:49:22.500Z,48.87
2018-03-03T18:51:49.965Z,53.87
2018-03-03T18:54:17.474Z,46.33
2018-03-03T18:56:46.106Z,50.13
2018-03-03T18:59:13.635Z,47.67
2018-03-03T19:01:41.165Z,45.07
2018-03-03T19:04:08.608Z,43.00
2018-03-03T19:06:36.146Z,53.23
2018-03-03T19:09:03.624Z,48.80
2018-03-03T19:11:31.097Z,50.17
2018-03-03T19:13:58.572Z,49.20
2018-03-03T19:16:26.103Z,51.40
2018-03-03T19:18:53.567Z,47.57
2018-03-03T19:21:21.059Z,45.60
2018-03-03T19:23:48.528Z,49.00
2018-03-03T19:26:15.993Z,52.70
2018-03-03T19:28:43.593Z,52.47
2018-03-03T19:31:11.027Z,54.13
2018-03-03T19:33:38.524Z,48.47
2018-03-03T19:36:05.990Z,51.37
2018-03-03T19:38:33.451Z,49.07
2018-03-03T19:41:00.930Z,51.93
2018-03-03T19:43:28.380Z,54.87
2018-03-03T19:45:55.905Z,51.67
2018-03-03T19:48:24.041Z,49.57
2018-03-03T19:50:51.534Z,50.73
2018-03-03T19:53:20.151Z,48.87
2018-03-03T19:55:47.692Z,45.93
2018-03-03T19:58:15.200Z,46.20
2018-03-03T20:00:42.646Z,50.07
2018-03-03T20:03:10.111Z,45.57
2018-03-03T20:05:37.687Z,48.50
2018-03-03T20:08:05.184Z,43.40
2018-03-03T20:10:32.750Z,51.20
2018-03-03T20:13:00.209Z,46.27
2018-03-03T20:15:27.687Z,48.53
2018-03-03T20:17:55.129Z,49.67
2018-03-03T20:20:22.638Z,51.70
2018-03-03T20:22:50.092Z,46.83
2018-03-03T20:25:17.608Z,51.07
2018-03-03T20:27:45.059Z,45.10
2018-03-03T20:30:12.539Z,49.23
2018-03-03T20:32:40.035Z,51.97
2018-03-03T20:35:07.489Z,48.03
2018-03-03T20:37:34.938Z,46.70
2018-03-03T20:40:02.457Z,48.13
2018-03-03T20:42:29.901Z,50.43
2018-03-03T20:44:57.408Z,44.30
2018-03-03T20:47:24.994Z,44.63
2018-03-03T20:49:52.583Z,49.17
2018-03-03T20:52:20.003Z,47.00
2018-03-03T20:54:47.481Z,46.50
2018-03-03T20:57:14.962Z,45.67
2018-03-03T20:59:42.417Z,48.40
2018-03-03T21:02:09.913Z,43.80
2018-03-03T21:04:38.271Z,43.60
2018-03-03T21:07:05.752Z,50.83
2018-03-03T21:09:33.237Z,46.33
2018-03-03T21:12:13.382Z,46.07
2018-03-03T21:14:40.838Z,46.27
2018-03-03T21:17:08.321Z,52.50
2018-03-03T21:19:35.888Z,47.30
2018-03-03T21:22:03.374Z,45.17
2018-03-03T21:24:30.836Z,47.07
2018-03-03T21:26:58.445Z,46.67
2018-03-03T21:29:25.893Z,51.23
2018-03-03T21:31:53.431Z,52.93
2018-03-03T21:34:20.885Z,49.20
2018-03-03T21:36:49.233Z,51.57
2018-03-03T21:39:16.716Z,52.00
2018-03-03T21:41:44.199Z,50.40
2018-03-03T21:44:11.688Z,66.07
2018-03-03T21:46:39.296Z,47.93
2018-03-03T21:49:06.882Z,48.60
2018-03-03T21:51:34.471Z,51.30
2018-03-03T21:54:01.983Z,52.17
2018-03-03T21:56:29.559Z,50.20
2018-03-03T21:58:57.024Z,46.90
2018-03-03T22:01:24.525Z,53.07
2018-03-03T22:03:51.986Z,52.70
2018-03-03T22:06:24.466Z,68.70
2018-03-03T22:08:51.942Z,51.83
2018-03-03T22:11:19.431Z,53.57
2018-03-03T22:13:46.909Z,47.30
2018-03-03T22:16:14.367Z,47.63
2018-03-03T22:18:41.939Z,55.50
2018-03-03T22:21:09.392Z,56.03
2018-03-03T22:23:36.876Z,51.83
2018-03-03T22:26:04.330Z,51.77
2018-03-03T22:28:31.804Z,52.13
2018-03-03T22:30:59.300Z,57.17
2018-03-03T22:33:26.740Z,51.87
2018-03-03T22:35:54.233Z,56.93
2018-03-03T22:38:21.676Z,53.23
2018-03-03T22:40:49.142Z,49.40
2018-03-03T22:43:16.594Z,54.90
2018-03-03T22:45:44.983Z,52.67
2018-03-03T22:48:12.424Z,51.13
2018-03-03T22:50:39.887Z,47.80
2018-03-03T22:53:07.435Z,50.40
2018-03-03T22:55:34.898Z,47.63
2018-03-03T22:58:02.656Z,48.60
2018-03-03T23:00:31.186Z,50.60
2018-03-03T23:02:58.662Z,52.33
2018-03-03T23:05:26.099Z,51.33
2018-03-03T23:07:53.568Z,49.70
2018-03-03T23:10:21.010Z,51.23
2018-03-03T23:12:48.472Z,54.27
2018-03-03T23:15:15.923Z,56.83
2018-03-03T23:17:43.369Z,57.27
2018-03-03T23:20:10.901Z,49.43
2018-03-03T23:22:38.398Z,51.20
2018-03-03T23:25:05.935Z,53.43
2018-03-03T23:27:33.934Z,57.53
2018-03-03T23:30:01.393Z,51.00
2018-03-03T23:32:28.830Z,58.10
2018-03-03T23:34:56.308Z,56.53
2018-03-03T23:37:23.882Z,49.77
2018-03-03T23:39:51.335Z,50.00
2018-03-03T23:42:18.827Z,51.50
2018-03-03T23:44:46.291Z,53.47
2018-03-03T23:47:13.716Z,51.77
2018-03-03T23:49:41.178Z,47.97
2018-03-03T23:52:08.620Z,56.57
2018-03-03T23:54:36.097Z,60.60
2018-03-03T23:57:03.532Z,51.80
2018-03-03T23:59:30.965Z,63.87
